Data for 01/17/2005

Time Sea-Level Adjusted Pressure Absolute Pressure Temperature Relative Humidity Dew Point   
(mb) (inHg) (mb) (inHg) (C) (F) (%) (C) (F)
00:05 1025 30.27 854 25.22 -0.6 30.9 78 -3.9 24.9
00:10 1025 30.27 854 25.22 -0.5 31.1 78 -3.9 25
00:15 1025 30.27 854 25.22 -0.4 31.3 76 -4.2 24.5
00:20 1025 30.27 854 25.22 -0.4 31.3 76 -4.2 24.5
00:25 1025 30.27 854 25.22 -0.1 31.9 73 -4.4 24.1
00:30 1025 30.27 855 25.25 0.5 32.8 73 -3.9 25
00:35 1025 30.27 855 25.25 0.5 32.8 72 -4 24.8
00:40 1026 30.3 855 25.25 0.5 32.8 73 -3.9 25
00:45 1025 30.27 855 25.25 0.3 32.6 73 -4 24.8
00:50 1025 30.27 855 25.25 0.8 33.4 69 -4.2 24.5
00:55 1025 30.27 855 25.25 0.8 33.5 70 -4 24.7
01:00 1025 30.27 854 25.22 0.7 33.2 70 -4.1 24.6
01:05 1025 30.27 854 25.22 0.4 32.7 70 -4.5 24
01:10 1025 30.27 855 25.25 -0.4 31.3 75 -4.3 24.2
01:15 1025 30.27 854 25.22 -0.2 31.6 74 -4.3 24.2
01:20 1025 30.27 855 25.25 -0.3 31.4 74 -4.3 24.2
01:25 1025 30.27 855 25.25 -0.8 30.6 76 -4.6 23.7
01:30 1026 30.3 855 25.25 -0.9 30.3 75 -4.7 23.5
01:35 1026 30.3 855 25.25 -0.9 30.4 75 -4.8 23.4
01:40 1026 30.3 855 25.25 -0.6 30.9 73 -4.8 23.3
01:45 1026 30.3 855 25.25 -0.5 31.1 73 -4.8 23.3
01:50 1025 30.27 855 25.25 -0.2 31.7 72 -4.6 23.7
01:55 1026 30.3 855 25.25 -0.2 31.6 72 -4.6 23.7
02:00 1026 30.3 855 25.25 0.1 32.2 71 -4.5 23.9
02:05 1026 30.3 855 25.25 -0.3 31.4 73 -4.6 23.8
02:10 1026 30.3 855 25.25 0 32 71 -4.6 23.7
02:15 1026 30.3 855 25.25 0.2 32.4 71 -4.5 23.9
02:20 1026 30.3 855 25.25 0.1 32.2 71 -4.5 23.9
02:25 1026 30.3 855 25.25 0.1 32.2 71 -4.5 23.9
02:30 1026 30.3 855 25.25 0.3 32.5 71 -4.5 24
02:35 1026 30.3 855 25.25 0.6 33 70 -4.4 24.2
02:40 1026 30.3 855 25.25 0.9 33.6 69 -4.2 24.5
02:45 1026 30.3 855 25.25 1 33.8 68 -4.2 24.4
02:50 1026 30.3 856 25.28 1.1 34 68 -4.1 24.5
02:55 1026 30.3 856 25.28 1.3 34.3 67 -4.3 24.3
03:00 1026 30.3 856 25.28 1.4 34.6 67 -4.1 24.7
03:05 1026 30.3 856 25.28 1.3 34.4 67 -4 24.7
03:10 1027 30.33 856 25.28 1.2 34.1 68 -4 24.7
03:15 1027 30.33 856 25.28 1 33.9 69 -4.1 24.6
03:20 1027 30.33 856 25.28 1 33.9 68 -4.2 24.4
03:25 1027 30.33 856 25.28 1 33.8 69 -4.1 24.7
03:30 1027 30.33 856 25.28 0.9 33.7 69 -4.1 24.6
03:35 1027 30.33 856 25.28 0.9 33.7 69 -4.1 24.6
03:40 1027 30.33 856 25.28 1 33.7 69 -4.1 24.6
03:45 1027 30.33 856 25.28 0.9 33.5 70 -4.1 24.7
03:50 1027 30.33 856 25.28 0.5 32.9 71 -4.1 24.7
03:55 1027 30.33 856 25.28 0.3 32.6 72 -4.2 24.5
04:00 1027 30.33 856 25.28 0.2 32.3 72 -4.3 24.3
04:05 1027 30.33 856 25.28 0.1 32.2 72 -4.3 24.3
04:10 1027 30.33 856 25.28 0.2 32.3 71 -4.4 24
04:15 1027 30.33 856 25.28 0.1 32.3 72 -4.3 24.3
04:20 1027 30.33 856 25.28 0.1 32.1 72 -4.3 24.2
04:25 1027 30.33 856 25.28 -0.1 31.8 72 -4.5 24
04:30 1027 30.33 856 25.28 -0.1 31.8 72 -4.5 23.8
04:35 1027 30.33 856 25.28 -0.1 31.9 72 -4.6 23.7
04:40 1027 30.33 856 25.28 -0.1 31.7 72 -4.6 23.7
04:45 1027 30.33 856 25.28 0 32 71 -4.7 23.6
04:50 1027 30.33 856 25.28 0.2 32.3 70 -4.6 23.7
04:55 1027 30.33 856 25.28 -0.1 31.9 73 -4.4 24.1
05:00 1027 30.33 856 25.28 -0.6 30.9 75 -4.5 24
05:05 1027 30.33 856 25.28 -1.5 29.3 80 -4.5 23.9
05:10 1027 30.33 856 25.28 -1.7 28.9 81 -4.6 23.7
05:15 1027 30.33 856 25.28 -1.5 29.2 79 -4.7 23.6
05:20 1027 30.33 856 25.28 -1.8 28.8 80 -4.7 23.5
05:25 1027 30.33 856 25.28 -2.1 28.2 82 -4.7 23.5
05:30 1027 30.33 856 25.28 -2.4 27.6 83 -4.9 23.1
05:35 1026 30.3 856 25.28 -1.8 28.7 79 -5 22.9
05:40 1026 30.3 856 25.28 -1.2 29.8 77 -4.7 23.5
05:45 1027 30.33 856 25.28 -1.4 29.4 78 -4.8 23.4
05:50 1026 30.3 856 25.28 -1.3 29.7 77 -4.8 23.4
05:55 1026 30.3 856 25.28 -1 30.2 76 -4.7 23.6
06:00 1026 30.3 856 25.28 -1.4 29.5 78 -4.7 23.5
06:05 1026 30.3 855 25.25 -1.4 29.4 78 -4.8 23.4
06:10 1026 30.3 855 25.25 -1.6 29.1 79 -4.8 23.4
06:15 1026 30.3 855 25.25 -1.7 28.9 79 -4.9 23.2
06:20 1026 30.3 855 25.25 -1.6 29.2 76 -5.2 22.7
06:25 1026 30.3 855 25.25 -1.3 29.6 77 -4.9 23.2
06:30 1026 30.3 855 25.25 -1.2 29.9 76 -4.9 23.2
06:35 1026 30.3 855 25.25 -1.7 29 76 -5.4 22.3
06:40 1026 30.3 855 25.25 -1.9 28.5 77 -5.4 22.3
06:45 1026 30.3 855 25.25 -2.5 27.5 81 -5.3 22.4
06:50 1026 30.3 855 25.25 -2.7 27.1 80 -5.6 21.8
06:55 1026 30.3 855 25.25 -2.9 26.8 80 -5.8 21.6
07:00 1026 30.3 855 25.25 -2.3 27.8 78 -5.6 21.9
07:05 1026 30.3 855 25.25 -1.9 28.6 77 -5.5 22.2
07:10 1026 30.3 855 25.25 -2 28.3 80 -5.1 22.9
07:15 1026 30.3 855 25.25 -1.7 28.9 78 -5 22.9
07:20 1026 30.3 855 25.25 -1.2 29.8 73 -5.4 22.3
07:25 1026 30.3 855 25.25 -1.1 30 74 -5.1 22.7
07:30 1026 30.3 855 25.25 -1.4 29.5 73 -5.7 21.8
07:35 1026 30.3 856 25.28 -1.7 29 75 -5.5 22.1
07:40 1026 30.3 856 25.28 -1.4 29.4 74 -5.6 22
07:45 1026 30.3 856 25.28 -1.5 29.2 72 -5.9 21.4
07:50 1026 30.3 856 25.28 -1.6 29.2 73 -5.8 21.5
07:55 1026 30.3 856 25.28 -2.2 28 75 -6.1 21.1
08:00 1026 30.3 856 25.28 -3.6 25.5 81 -6.4 20.5
08:05 1026 30.3 856 25.28 -3.5 25.7 79 -6.7 20
08:10 1026 30.3 856 25.28 -3.1 26.4 78 -6.4 20.4
08:15 1026 30.3 856 25.28 -3.3 26.1 78 -6.6 20.2
08:20 1026 30.3 856 25.28 -3.5 25.6 80 -6.5 20.3
08:25 1026 30.3 855 25.25 -2.9 26.8 76 -6.5 20.3
08:30 1026 30.3 855 25.25 -2.6 27.4 76 -6.2 20.8
08:35 1026 30.3 856 25.28 -2.5 27.5 74 -6.5 20.3
08:40 1026 30.3 856 25.28 -2.7 27.2 75 -6.5 20.2
08:45 1026 30.3 856 25.28 -2.3 27.9 72 -6.7 20
08:50 1026 30.3 856 25.28 -2.1 28.2 71 -6.7 19.9
08:55 1026 30.3 856 25.28 -2 28.4 72 -6.4 20.5
09:00 1026 30.3 856 25.28 -1.9 28.6 70 -6.6 20.2
09:05 1027 30.33 856 25.28 -1.1 30 67 -6.4 20.5
09:10 1026 30.3 856 25.28 -0.4 31.2 65 -6.2 20.9
09:15 1027 30.33 856 25.28 -0.6 31 65 -6.3 20.6
09:20 1027 30.33 856 25.28 -0.8 30.5 67 -6.2 20.8
09:25 1027 30.33 856 25.28 -0.4 31.3 65 -6.3 20.7
09:30 1027 30.33 856 25.28 -0.6 31 64 -6.5 20.4
09:35 1027 30.33 856 25.28 -0.6 30.9 65 -6.3 20.7
09:40 1027 30.33 856 25.28 -0.4 31.2 63 -6.6 20.1
09:45 1027 30.33 856 25.28 -0.1 31.8 65 -6 21.2
09:50 1027 30.33 856 25.28 0.3 32.5 63 -5.9 21.4
09:55 1027 30.33 856 25.28 -0.4 31.2 67 -5.8 21.5
10:00 1027 30.33 856 25.28 -0.9 30.4 69 -5.8 21.5
10:05 1027 30.33 856 25.28 -0.8 30.5 67 -6.3 20.7
10:10 1027 30.33 856 25.28 -0.8 30.5 67 -6.1 21
10:15 1027 30.33 856 25.28 -0.5 31.2 65 -6.3 20.6
10:20 1027 30.33 856 25.28 -0 31.9 65 -5.8 21.5
10:25 1027 30.33 856 25.28 0.5 33 61 -6.2 20.8
10:30 1027 30.33 856 25.28 1.6 35 57 -5.9 21.4
10:35 1027 30.33 856 25.28 2 35.7 57 -5.5 22.1
10:40 1027 30.33 856 25.28 2.4 36.4 56 -5.6 22
10:45 1027 30.33 856 25.28 1.9 35.5 58 -5.4 22.4
10:50 1027 30.33 856 25.28 1.9 35.3 57 -5.7 21.7
10:55 1027 30.33 856 25.28 2.3 36.2 56 -5.5 22
11:00 1027 30.33 856 25.28 2.5 36.5 57 -5.2 22.6
11:05 1026 30.3 856 25.28 2.6 36.7 57 -5.1 22.9
11:10 1026 30.3 855 25.25 2.6 36.7 57 -5.1 22.8
11:15 1026 30.3 855 25.25 2.7 36.9 57 -5 23
11:20 1026 30.3 855 25.25 2.2 35.9 58 -5.3 22.5
11:25 1026 30.3 855 25.25 2.5 36.5 56 -5.4 22.3
11:30 1026 30.3 855 25.25 3.3 37.9 54 -5.2 22.7
11:35 1026 30.3 855 25.25 3.6 38.5 53 -5.1 22.7
11:40 1026 30.3 855 25.25 4.1 39.3 52 -4.9 23.1
11:45 1026 30.3 855 25.25 4.4 39.9 51 -5 23
11:50 1026 30.3 855 25.25 4.2 39.6 53 -4.5 23.8
11:55 1026 30.3 855 25.25 3.9 39 54 -4.5 23.9
12:00 1026 30.3 855 25.25 4 39.2 53 -4.7 23.5
12:05 1025 30.27 855 25.25 4.2 39.5 53 -4.5 23.8
12:10 1025 30.27 855 25.25 3.7 38.6 55 -4.4 24
12:15 1025 30.27 855 25.25 4.5 40.2 52 -4.5 23.8
12:20 1025 30.27 855 25.25 5.1 41.2 51 -4.2 24.4
12:25 1025 30.27 854 25.22 5.5 41.8 51 -4 24.8
12:30 1025 30.27 854 25.22 5.2 41.3 52 -3.9 24.9
12:35 1025 30.27 854 25.22 3.7 38.6 56 -4.4 24.1
12:40 1025 30.27 854 25.22 3.3 38 56 -4.6 23.6
12:45 1025 30.27 854 25.22 3.4 38.2 56 -4.6 23.8
12:50 1024 30.24 853 25.19 3.4 38.1 56 -4.6 23.7
12:55 1024 30.24 853 25.19 3.6 38.4 56 -4.5 24
13:00 1024 30.24 853 25.19 3.6 38.5 55 -4.6 23.6
13:05 1024 30.24 853 25.19 3.9 39.1 53 -4.7 23.5
13:10 1024 30.24 853 25.19 4.7 40.4 52 -4.3 24.3
13:15 1024 30.24 853 25.19 4.7 40.4 52 -4.4 24
13:20 1023 30.21 853 25.19 4.7 40.4 53 -4.2 24.5
13:25 1023 30.21 853 25.19 4.5 40.1 53 -4.2 24.5
13:30 1023 30.21 852 25.16 4 39.1 54 -4.5 23.9
13:35 1023 30.21 852 25.16 3.9 38.9 53 -5 23.1
13:40 1023 30.21 852 25.16 4.5 40.2 50 -5 23
13:45 1023 30.21 852 25.16 4.9 40.8 48 -5.3 22.5
13:50 1023 30.21 852 25.16 4.4 39.8 50 -5.1 22.9
13:55 1023 30.21 852 25.16 4.7 40.5 48 -5.2 22.6
14:00 1023 30.21 852 25.16 5.5 41.9 47 -4.9 23.2
14:05 1023 30.21 852 25.16 5.6 42 47 -4.8 23.3
14:10 1023 30.21 852 25.16 5.6 42.1 48 -4.5 23.8
14:15 1023 30.21 852 25.16 5.4 41.8 49 -4.4 24.1
14:20 1023 30.21 852 25.16 5.4 41.8 50 -4.3 24.3
14:25 1023 30.21 852 25.16 5.5 41.8 50 -4.1 24.6
14:30 1023 30.21 852 25.16 5.5 41.9 49 -4.3 24.3
14:35 1023 30.21 852 25.16 5.3 41.6 53 -3.6 25.6
14:40 1023 30.21 852 25.16 4.8 40.6 55 -3.5 25.8
14:45 1023 30.21 852 25.16 4.6 40.2 55 -3.7 25.4
14:50 1023 30.21 852 25.16 4.5 40 55 -3.7 25.3
14:55 1023 30.21 852 25.16 4.4 39.9 55 -3.9 25
15:00 1023 30.21 852 25.16 4.6 40.2 53 -4.1 24.6
15:05 1023 30.21 852 25.16 5.1 41.2 53 -3.8 25.2
15:10 1023 30.21 852 25.16 5.4 41.7 52 -3.6 25.4
15:15 1023 30.21 852 25.16 5.3 41.5 52 -3.7 25.3
15:20 1023 30.21 852 25.16 5.1 41.2 53 -3.8 25.2
15:25 1023 30.21 852 25.16 4.7 40.4 54 -3.7 25.3
15:30 1023 30.21 852 25.16 4.2 39.5 55 -4.1 24.7
15:35 1023 30.21 852 25.16 4.1 39.4 52 -4.9 23.1
15:40 1022 30.18 852 25.16 4 39.2 53 -4.8 23.3
15:45 1022 30.18 852 25.16 4 39.2 54 -4.5 23.9
15:50 1022 30.18 852 25.16 3.9 39 55 -4.3 24.3
15:55 1022 30.18 852 25.16 3.6 38.6 57 -4.2 24.5
16:00 1022 30.18 851 25.13 3.5 38.3 59 -3.7 25.4
16:05 1022 30.18 851 25.13 3.1 37.6 62 -3.5 25.7
16:10 1022 30.18 851 25.13 2.8 37.1 64 -3.4 26
16:15 1022 30.18 851 25.13 2.6 36.7 65 -3.2 26.2
16:20 1022 30.18 851 25.13 2.3 36.1 67 -3.2 26.3
16:25 1022 30.18 851 25.13 2.1 35.8 69 -3 26.5
16:30 1022 30.18 851 25.13 2 35.6 68 -3.2 26.2
16:35 1022 30.18 851 25.13 2 35.7 67 -3.5 25.7
16:40 1022 30.18 852 25.16 2 35.6 66 -3.7 25.3
16:45 1022 30.18 851 25.13 1.9 35.5 66 -3.7 25.4
16:50 1022 30.18 852 25.16 1.8 35.2 67 -3.7 25.3
16:55 1022 30.18 852 25.16 1.7 35 68 -3.6 25.5
17:00 1022 30.18 852 25.16 1.7 35.1 68 -3.6 25.5
17:05 1022 30.18 852 25.16 1.8 35.2 68 -3.4 25.8
17:10 1022 30.18 852 25.16 1.8 35.3 69 -3.3 26
17:15 1022 30.18 852 25.16 1.7 35.1 71 -3 26.5
17:20 1022 30.18 852 25.16 1.5 34.7 70 -3.4 25.8
17:25 1022 30.18 852 25.16 2 35.6 62 -4.5 24
17:30 1022 30.18 852 25.16 2.4 36.2 60 -4.5 23.9
17:35 1022 30.18 852 25.16 2.2 36 65 -3.8 25.2
17:40 1022 30.18 852 25.16 2 35.7 65 -3.9 25
17:45 1022 30.18 852 25.16 1.9 35.5 63 -4.4 24.2
17:50 1022 30.18 852 25.16 2.1 35.8 61 -4.7 23.5
17:55 1022 30.18 852 25.16 2.3 36.1 61 -4.6 23.8
18:00 1022 30.18 852 25.16 2.4 36.4 62 -4.2 24.5
18:05 1022 30.18 852 25.16 2.5 36.6 63 -3.9 25.1
18:10 1022 30.18 852 25.16 2.5 36.5 63 -3.9 25.1
18:15 1022 30.18 852 25.16 2.4 36.2 64 -3.7 25.3
18:20 1022 30.18 852 25.16 2.1 35.8 64 -4 24.8
18:25 1022 30.18 852 25.16 2 35.6 64 -4 24.8
18:30 1022 30.18 852 25.16 2.3 36.1 64 -3.9 25
18:35 1022 30.18 852 25.16 2.6 36.8 64 -3.5 25.7
18:40 1022 30.18 852 25.16 2.7 36.8 62 -3.8 25.1
18:45 1022 30.18 852 25.16 2.4 36.4 65 -3.5 25.8
18:50 1022 30.18 852 25.16 2.2 35.9 66 -3.5 25.7
18:55 1022 30.18 851 25.13 2.4 36.3 63 -3.9 25.1
19:00 1022 30.18 851 25.13 2.7 36.9 62 -3.9 25.1
19:05 1022 30.18 851 25.13 2.9 37.2 62 -3.6 25.5
19:10 1022 30.18 851 25.13 2.7 36.9 62 -3.8 25.1
19:15 1022 30.18 851 25.13 2.6 36.7 62 -4 24.8
19:20 1022 30.18 851 25.13 2.7 36.9 59 -4.5 24
19:25 1022 30.18 851 25.13 3.1 37.5 59 -4.3 24.3
19:30 1022 30.18 851 25.13 3.1 37.6 62 -3.4 25.9
19:35 1022 30.18 851 25.13 3 37.4 60 -4 24.7
19:40 1022 30.18 851 25.13 2.7 36.8 66 -3.1 26.4
19:45 1022 30.18 851 25.13 2.2 35.9 67 -3.3 26
19:50 1021 30.15 851 25.13 2.3 36.1 64 -3.9 25
19:55 1021 30.15 850 25.1 2.5 36.5 61 -4.2 24.5
20:00 1021 30.15 850 25.1 2.8 37.1 59 -4.4 24.2
20:05 1021 30.15 850 25.1 3 37.5 58 -4.4 24
20:10 1021 30.15 850 25.1 3 37.3 60 -4.1 24.7
20:15 1021 30.15 850 25.1 2.8 37 59 -4.5 24
20:20 1021 30.15 850 25.1 2.7 36.9 61 -4 24.9
20:25 1021 30.15 850 25.1 2.8 37.1 61 -4 24.8
20:30 1021 30.15 850 25.1 2.6 36.7 61 -4.2 24.5
20:35 1021 30.15 850 25.1 3 37.3 58 -4.5 23.9
20:40 1021 30.15 850 25.1 3.3 38 54 -5.1 22.9
20:45 1021 30.15 850 25.1 3.7 38.7 53 -5 23
20:50 1021 30.15 850 25.1 4 39.1 54 -4.6 23.8
20:55 1021 30.15 850 25.1 4.1 39.5 55 -4.2 24.5
21:00 1021 30.15 850 25.1 4 39.1 55 -4.2 24.4
21:05 1021 30.15 850 25.1 4.3 39.7 51 -5.1 22.9
21:10 1020 30.12 850 25.1 5 40.9 51 -4.4 24.1
21:15 1020 30.12 849 25.07 5.2 41.3 50 -4.3 24.3
21:20 1020 30.12 849 25.07 5.4 41.7 50 -4.3 24.3
21:25 1019 30.09 849 25.07 5.5 41.9 48 -4.5 23.9
21:30 1019 30.09 848 25.04 5.8 42.5 51 -3.4 25.8
21:35 1019 30.09 848 25.04 3.4 38.1 63 -3 26.6
21:40 1019 30.09 848 25.04 2.8 37.1 61 -4 24.7
21:45 1019 30.09 849 25.07 2.4 36.2 65 -3.6 25.6
21:50 1019 30.09 849 25.07 1.9 35.4 66 -3.8 25.2
21:55 1020 30.12 849 25.07 2.6 36.7 61 -4.2 24.5
22:00 1019 30.09 848 25.04 3.4 38.2 60 -3.7 25.4
22:05 1019 30.09 848 25.04 4.1 39.4 58 -3.5 25.7
22:10 1019 30.09 848 25.04 4.5 40.1 57 -3.2 26.3
22:15 1019 30.09 848 25.04 4.8 40.7 57 -3.1 26.5
22:20 1019 30.09 849 25.07 5 41.1 56 -3 26.5
22:25 1019 30.09 849 25.07 5.6 42.1 53 -3.1 26.4
22:30 1020 30.12 849 25.07 5.8 42.4 54 -2.7 27.1
22:35 1020 30.12 849 25.07 5.5 41.8 56 -2.7 27.2
22:40 1020 30.12 849 25.07 5.1 41.3 57 -2.6 27.4
22:45 1019 30.09 849 25.07 5.1 41.1 56 -3 26.7
22:50 1019 30.09 849 25.07 5.2 41.4 56 -2.9 26.8
22:55 1020 30.12 849 25.07 5.3 41.6 55 -3 26.7
23:00 1020 30.12 849 25.07 5.6 42.1 55 -2.8 27
23:05 1020 30.12 849 25.07 5.7 42.3 54 -2.8 27
23:10 1019 30.09 849 25.07 5.6 42.1 55 -2.6 27.3
23:15 1020 30.12 849 25.07 4.7 40.5 59 -2.6 27.4
23:20 1020 30.12 849 25.07 3.5 38.4 61 -3.2 26.2
23:25 1020 30.12 849 25.07 3.5 38.3 62 -3.2 26.2
23:30 1020 30.12 849 25.07 3.9 39 59 -3.3 26.1
23:35 1020 30.12 849 25.07 4.3 39.7 59 -3.1 26.4
23:40 1020 30.12 849 25.07 3.7 38.7 62 -3 26.6
23:45 1020 30.12 849 25.07 3.5 38.3 62 -3.1 26.5
23:50 1020 30.12 849 25.07 3.6 38.4 61 -3.3 26.1
23:55 1020 30.12 849 25.07 3.8 38.8 60 -3.3 26
24:00 1020 30.12 849 25.07 3.9 39.1 60 -3.1 26.4